sensor_id;sensor_type;location;lat;lon;timestamp;pressure;altitude;pressure_sealevel;temperature;humidity
75513;BME280;64090;49.770;18.760;2023-01-31T00:00:26;97013.39;;;0.05;91.48
75513;BME280;64090;49.770;18.760;2023-01-31T00:03:58;97019.46;;;0.07;91.93
75513;BME280;64090;49.770;18.760;2023-01-31T00:07:01;97022.00;;;0.11;91.96
75513;BME280;64090;49.770;18.760;2023-01-31T00:10:04;97023.28;;;0.12;92.18
75513;BME280;64090;49.770;18.760;2023-01-31T00:13:07;97026.59;;;0.14;91.84
75513;BME280;64090;49.770;18.760;2023-01-31T00:16:11;97030.73;;;0.16;92.27
75513;BME280;64090;49.770;18.760;2023-01-31T00:19:15;97033.29;;;0.16;92.22
75513;BME280;64090;49.770;18.760;2023-01-31T00:22:18;97038.02;;;0.14;91.91
75513;BME280;64090;49.770;18.760;2023-01-31T00:25:21;97037.35;;;0.12;92.27
75513;BME280;64090;49.770;18.760;2023-01-31T00:28:24;97039.79;;;0.14;91.92
75513;BME280;64090;49.770;18.760;2023-01-31T00:31:29;97042.66;;;0.16;91.48
75513;BME280;64090;49.770;18.760;2023-01-31T00:34:32;97048.27;;;0.19;91.61
75513;BME280;64090;49.770;18.760;2023-01-31T00:37:36;97052.66;;;0.21;91.55
75513;BME280;64090;49.770;18.760;2023-01-31T00:40:39;97059.98;;;0.23;91.41
75513;BME280;64090;49.770;18.760;2023-01-31T00:43:42;97062.14;;;0.24;91.31
75513;BME280;64090;49.770;18.760;2023-01-31T00:46:45;97067.48;;;0.24;91.30
75513;BME280;64090;49.770;18.760;2023-01-31T00:49:48;97074.39;;;0.27;91.14
75513;BME280;64090;49.770;18.760;2023-01-31T00:52:51;97085.77;;;0.29;90.94
75513;BME280;64090;49.770;18.760;2023-01-31T00:56:00;97083.27;;;0.33;90.61
75513;BME280;64090;49.770;18.760;2023-01-31T00:59:03;97095.39;;;0.39;90.04
75513;BME280;64090;49.770;18.760;2023-01-31T01:02:10;97097.29;;;0.39;89.64
75513;BME280;64090;49.770;18.760;2023-01-31T01:05:13;97114.33;;;0.43;89.59
75513;BME280;64090;49.770;18.760;2023-01-31T01:08:16;97102.92;;;0.37;90.03
75513;BME280;64090;49.770;18.760;2023-01-31T01:11:24;97104.94;;;0.26;90.56
75513;BME280;64090;49.770;18.760;2023-01-31T01:14:27;97097.08;;;0.14;91.22
75513;BME280;64090;49.770;18.760;2023-01-31T01:17:30;97103.36;;;0.07;91.36
75513;BME280;64090;49.770;18.760;2023-01-31T01:20:34;97103.93;;;0.08;90.87
75513;BME280;64090;49.770;18.760;2023-01-31T01:23:39;97106.60;;;0.11;90.48
75513;BME280;64090;49.770;18.760;2023-01-31T01:26:42;97111.33;;;0.10;90.50
75513;BME280;64090;49.770;18.760;2023-01-31T01:29:46;97112.66;;;0.05;90.90
75513;BME280;64090;49.770;18.760;2023-01-31T01:32:49;97113.80;;;0.04;90.91
75513;BME280;64090;49.770;18.760;2023-01-31T01:35:52;97116.92;;;0.00;91.16
75513;BME280;64090;49.770;18.760;2023-01-31T01:38:55;97114.45;;;-0.03;91.63
75513;BME280;64090;49.770;18.760;2023-01-31T01:41:58;97123.75;;;-0.05;91.53
75513;BME280;64090;49.770;18.760;2023-01-31T01:45:03;97127.82;;;-0.06;91.19
75513;BME280;64090;49.770;18.760;2023-01-31T01:48:17;97132.13;;;-0.07;91.53
75513;BME280;64090;49.770;18.760;2023-01-31T01:51:20;97136.98;;;-0.05;91.41
75513;BME280;64090;49.770;18.760;2023-01-31T01:54:27;97138.02;;;-0.04;91.09
75513;BME280;64090;49.770;18.760;2023-01-31T01:57:35;97139.90;;;-0.01;91.06
75513;BME280;64090;49.770;18.760;2023-01-31T02:00:39;97134.23;;;0.02;90.51
75513;BME280;64090;49.770;18.760;2023-01-31T02:03:44;97131.05;;;0.05;90.78
75513;BME280;64090;49.770;18.760;2023-01-31T02:06:47;97143.47;;;0.10;89.91
75513;BME280;64090;49.770;18.760;2023-01-31T02:09:57;97152.34;;;0.14;90.16
75513;BME280;64090;49.770;18.760;2023-01-31T02:13:02;97148.44;;;0.16;90.05
75513;BME280;64090;49.770;18.760;2023-01-31T02:16:05;97154.20;;;0.18;90.50
75513;BME280;64090;49.770;18.760;2023-01-31T02:19:19;97158.42;;;0.16;90.52
75513;BME280;64090;49.770;18.760;2023-01-31T02:25:46;97164.18;;;0.12;90.92
75513;BME280;64090;49.770;18.760;2023-01-31T02:29:20;97162.45;;;0.12;90.66
75513;BME280;64090;49.770;18.760;2023-01-31T02:42:52;97170.89;;;0.18;89.91
75513;BME280;64090;49.770;18.760;2023-01-31T02:46:18;97176.14;;;0.21;90.16
75513;BME280;64090;49.770;18.760;2023-01-31T02:49:38;97181.58;;;0.23;89.69
75513;BME280;64090;49.770;18.760;2023-01-31T02:52:49;97192.38;;;0.25;89.28
75513;BME280;64090;49.770;18.760;2023-01-31T02:56:08;97193.92;;;0.30;88.88
75513;BME280;64090;49.770;18.760;2023-01-31T02:59:23;97198.26;;;0.37;88.02
75513;BME280;64090;49.770;18.760;2023-01-31T03:02:29;97201.86;;;0.47;86.66
75513;BME280;64090;49.770;18.760;2023-01-31T03:05:32;97199.67;;;0.56;85.17
75513;BME280;64090;49.770;18.760;2023-01-31T03:08:39;97211.17;;;0.63;84.53
75513;BME280;64090;49.770;18.760;2023-01-31T03:18:10;97221.31;;;0.76;83.73
75513;BME280;64090;49.770;18.760;2023-01-31T03:21:23;97222.96;;;0.77;82.84
75513;BME280;64090;49.770;18.760;2023-01-31T03:24:30;97222.98;;;0.77;83.34
75513;BME280;64090;49.770;18.760;2023-01-31T03:27:34;97234.71;;;0.78;83.49
75513;BME280;64090;49.770;18.760;2023-01-31T03:30:51;97239.16;;;0.83;82.96
75513;BME280;64090;49.770;18.760;2023-01-31T03:33:59;97239.83;;;0.86;82.94
75513;BME280;64090;49.770;18.760;2023-01-31T03:37:12;97248.61;;;0.91;82.56
75513;BME280;64090;49.770;18.760;2023-01-31T03:40:27;97253.30;;;0.92;82.22
75513;BME280;64090;49.770;18.760;2023-01-31T03:43:47;97252.64;;;0.92;81.57
75513;BME280;64090;49.770;18.760;2023-01-31T03:46:56;97260.71;;;0.92;81.52
75513;BME280;64090;49.770;18.760;2023-01-31T03:50:08;97261.09;;;0.88;81.90
75513;BME280;64090;49.770;18.760;2023-01-31T03:53:17;97268.20;;;0.85;81.26
75513;BME280;64090;49.770;18.760;2023-01-31T03:59:28;97274.52;;;0.85;80.44
75513;BME280;64090;49.770;18.760;2023-01-31T04:02:35;97278.26;;;0.86;78.75
75513;BME280;64090;49.770;18.760;2023-01-31T04:05:38;97278.88;;;0.87;78.92
75513;BME280;64090;49.770;18.760;2023-01-31T04:08:42;97287.64;;;0.90;78.09
75513;BME280;64090;49.770;18.760;2023-01-31T04:11:49;97291.24;;;0.89;78.45
75513;BME280;64090;49.770;18.760;2023-01-31T04:14:52;97302.13;;;0.88;78.30
75513;BME280;64090;49.770;18.760;2023-01-31T04:17:55;97301.48;;;0.87;77.92
75513;BME280;64090;49.770;18.760;2023-01-31T04:20:57;97306.04;;;0.85;78.15
75513;BME280;64090;49.770;18.760;2023-01-31T04:24:01;97313.73;;;0.83;78.30
75513;BME280;64090;49.770;18.760;2023-01-31T04:27:04;97319.16;;;0.85;78.21
75513;BME280;64090;49.770;18.760;2023-01-31T04:30:07;97312.08;;;0.82;78.89
75513;BME280;64090;49.770;18.760;2023-01-31T04:33:10;97319.83;;;0.83;78.45
75513;BME280;64090;49.770;18.760;2023-01-31T04:36:13;97325.44;;;0.85;78.68
75513;BME280;64090;49.770;18.760;2023-01-31T04:39:16;97327.13;;;0.79;79.34
75513;BME280;64090;49.770;18.760;2023-01-31T04:42:19;97326.70;;;0.74;80.12
75513;BME280;64090;49.770;18.760;2023-01-31T04:45:22;97322.94;;;0.66;80.43
75513;BME280;64090;49.770;18.760;2023-01-31T04:48:25;97332.09;;;0.62;81.03
75513;BME280;64090;49.770;18.760;2023-01-31T04:51:30;97335.03;;;0.59;81.14
75513;BME280;64090;49.770;18.760;2023-01-31T04:54:33;97334.70;;;0.57;81.34
75513;BME280;64090;49.770;18.760;2023-01-31T04:57:36;97340.60;;;0.55;81.46
75513;BME280;64090;49.770;18.760;2023-01-31T05:00:39;97343.73;;;0.54;81.46
75513;BME280;64090;49.770;18.760;2023-01-31T05:03:42;97343.50;;;0.54;81.54
75513;BME280;64090;49.770;18.760;2023-01-31T05:06:45;97351.20;;;0.51;81.07
75513;BME280;64090;49.770;18.760;2023-01-31T05:09:47;97360.50;;;0.50;81.24
75513;BME280;64090;49.770;18.760;2023-01-31T05:12:50;97365.95;;;0.46;81.06
75513;BME280;64090;49.770;18.760;2023-01-31T05:15:53;97368.38;;;0.48;80.84
75513;BME280;64090;49.770;18.760;2023-01-31T05:18:56;97377.27;;;0.46;80.51
75513;BME280;64090;49.770;18.760;2023-01-31T05:21:59;97376.14;;;0.45;80.39
75513;BME280;64090;49.770;18.760;2023-01-31T05:25:02;97380.05;;;0.48;79.38
75513;BME280;64090;49.770;18.760;2023-01-31T05:28:06;97388.61;;;0.55;77.98
75513;BME280;64090;49.770;18.760;2023-01-31T05:31:10;97393.33;;;0.56;77.43
75513;BME280;64090;49.770;18.760;2023-01-31T05:34:15;97399.62;;;0.58;77.00
75513;BME280;64090;49.770;18.760;2023-01-31T05:37:17;97405.29;;;0.59;76.61
75513;BME280;64090;49.770;18.760;2023-01-31T05:40:21;97407.81;;;0.63;75.18
75513;BME280;64090;49.770;18.760;2023-01-31T05:43:24;97415.98;;;0.65;75.34
75513;BME280;64090;49.770;18.760;2023-01-31T05:46:27;97412.06;;;0.64;75.00
75513;BME280;64090;49.770;18.760;2023-01-31T05:49:30;97416.17;;;0.63;74.91
75513;BME280;64090;49.770;18.760;2023-01-31T05:52:35;97420.89;;;0.63;74.69
75513;BME280;64090;49.770;18.760;2023-01-31T05:55:38;97424.18;;;0.62;74.11
75513;BME280;64090;49.770;18.760;2023-01-31T05:58:41;97425.23;;;0.60;73.89
75513;BME280;64090;49.770;18.760;2023-01-31T06:01:44;97429.98;;;0.58;73.81
75513;BME280;64090;49.770;18.760;2023-01-31T06:04:47;97426.52;;;0.54;74.14
75513;BME280;64090;49.770;18.760;2023-01-31T06:07:51;97436.22;;;0.53;73.23
75513;BME280;64090;49.770;18.760;2023-01-31T06:10:54;97440.52;;;0.55;72.74
75513;BME280;64090;49.770;18.760;2023-01-31T06:13:57;97451.61;;;0.56;73.10
75513;BME280;64090;49.770;18.760;2023-01-31T06:17:01;97458.98;;;0.55;72.92
75513;BME280;64090;49.770;18.760;2023-01-31T06:20:04;97459.27;;;0.50;73.62
75513;BME280;64090;49.770;18.760;2023-01-31T06:23:07;97464.25;;;0.51;73.42
75513;BME280;64090;49.770;18.760;2023-01-31T06:26:11;97465.23;;;0.50;73.36
75513;BME280;64090;49.770;18.760;2023-01-31T06:29:14;97468.11;;;0.51;73.31
75513;BME280;64090;49.770;18.760;2023-01-31T06:32:17;97470.63;;;0.52;73.51
75513;BME280;64090;49.770;18.760;2023-01-31T06:35:20;97478.14;;;0.50;73.61
75513;BME280;64090;49.770;18.760;2023-01-31T06:38:23;97485.61;;;0.50;73.64
75513;BME280;64090;49.770;18.760;2023-01-31T06:41:26;97492.36;;;0.49;74.00
75513;BME280;64090;49.770;18.760;2023-01-31T06:44:29;97496.17;;;0.49;73.55
75513;BME280;64090;49.770;18.760;2023-01-31T06:47:34;97504.57;;;0.56;73.41
75513;BME280;64090;49.770;18.760;2023-01-31T06:50:37;97507.44;;;0.59;73.38
75513;BME280;64090;49.770;18.760;2023-01-31T06:53:40;97510.48;;;0.60;73.35
75513;BME280;64090;49.770;18.760;2023-01-31T06:56:43;97513.45;;;0.60;73.30
75513;BME280;64090;49.770;18.760;2023-01-31T06:59:46;97519.00;;;0.60;73.52
75513;BME280;64090;49.770;18.760;2023-01-31T07:02:49;97525.12;;;0.61;73.76
75513;BME280;64090;49.770;18.760;2023-01-31T07:05:52;97530.33;;;0.62;74.02
75513;BME280;64090;49.770;18.760;2023-01-31T07:08:55;97539.94;;;0.65;74.02
75513;BME280;64090;49.770;18.760;2023-01-31T07:11:58;97542.38;;;0.71;74.18
75513;BME280;64090;49.770;18.760;2023-01-31T07:15:02;97546.61;;;0.72;74.91
75513;BME280;64090;49.770;18.760;2023-01-31T07:18:05;97548.30;;;0.73;74.96
75513;BME280;64090;49.770;18.760;2023-01-31T07:21:08;97554.86;;;0.74;75.26
75513;BME280;64090;49.770;18.760;2023-01-31T07:24:12;97562.95;;;0.74;75.31
75513;BME280;64090;49.770;18.760;2023-01-31T07:27:15;97563.89;;;0.77;75.61
75513;BME280;64090;49.770;18.760;2023-01-31T07:30:18;97568.53;;;0.76;75.92
75513;BME280;64090;49.770;18.760;2023-01-31T07:33:21;97576.23;;;0.78;76.03
75513;BME280;64090;49.770;18.760;2023-01-31T07:36:25;97579.73;;;0.81;75.63
75513;BME280;64090;49.770;18.760;2023-01-31T07:39:28;97578.23;;;0.84;75.69
75513;BME280;64090;49.770;18.760;2023-01-31T07:42:31;97582.31;;;0.87;75.80
75513;BME280;64090;49.770;18.760;2023-01-31T07:45:35;97584.52;;;0.92;75.89
75513;BME280;64090;49.770;18.760;2023-01-31T07:48:38;97593.33;;;0.98;75.38
75513;BME280;64090;49.770;18.760;2023-01-31T07:51:41;97589.02;;;1.03;74.93
75513;BME280;64090;49.770;18.760;2023-01-31T07:54:44;97587.16;;;1.07;74.67
75513;BME280;64090;49.770;18.760;2023-01-31T07:57:47;97590.48;;;1.07;75.07
75513;BME280;64090;49.770;18.760;2023-01-31T08:00:52;97594.13;;;1.17;74.42
75513;BME280;64090;49.770;18.760;2023-01-31T08:04:15;97597.35;;;1.19;74.58
75513;BME280;64090;49.770;18.760;2023-01-31T08:07:25;97593.02;;;1.17;74.70
75513;BME280;64090;49.770;18.760;2023-01-31T08:10:28;97596.69;;;1.21;74.92
75513;BME280;64090;49.770;18.760;2023-01-31T08:13:36;97598.71;;;1.25;74.56
75513;BME280;64090;49.770;18.760;2023-01-31T08:16:39;97601.98;;;1.33;74.85
75513;BME280;64090;49.770;18.760;2023-01-31T08:19:42;97605.66;;;1.49;74.47
75513;BME280;64090;49.770;18.760;2023-01-31T08:22:45;97608.24;;;1.52;73.51
75513;BME280;64090;49.770;18.760;2023-01-31T08:25:48;97610.67;;;1.58;73.82
75513;BME280;64090;49.770;18.760;2023-01-31T08:28:51;97614.08;;;1.64;73.05
75513;BME280;64090;49.770;18.760;2023-01-31T08:31:55;97620.20;;;1.68;72.86
75513;BME280;64090;49.770;18.760;2023-01-31T08:34:58;97622.33;;;1.65;72.77
75513;BME280;64090;49.770;18.760;2023-01-31T08:38:02;97626.88;;;1.60;72.48
75513;BME280;64090;49.770;18.760;2023-01-31T08:41:19;97629.61;;;1.70;72.52
75513;BME280;64090;49.770;18.760;2023-01-31T08:44:22;97635.80;;;1.74;72.58
75513;BME280;64090;49.770;18.760;2023-01-31T08:47:25;97637.83;;;1.80;72.42
75513;BME280;64090;49.770;18.760;2023-01-31T08:50:30;97646.05;;;1.83;71.76
75513;BME280;64090;49.770;18.760;2023-01-31T08:53:37;97651.02;;;1.85;71.44
75513;BME280;64090;49.770;18.760;2023-01-31T08:56:40;97658.70;;;1.92;71.17
75513;BME280;64090;49.770;18.760;2023-01-31T08:59:43;97659.91;;;1.92;71.57
75513;BME280;64090;49.770;18.760;2023-01-31T09:02:57;97659.90;;;2.01;71.37
75513;BME280;64090;49.770;18.760;2023-01-31T09:06:02;97660.66;;;2.05;71.14
75513;BME280;64090;49.770;18.760;2023-01-31T09:09:06;97658.73;;;1.96;71.34
75513;BME280;64090;49.770;18.760;2023-01-31T09:12:09;97660.91;;;1.99;71.74
75513;BME280;64090;49.770;18.760;2023-01-31T09:15:12;97669.86;;;2.14;71.49
75513;BME280;64090;49.770;18.760;2023-01-31T09:18:16;97671.78;;;2.13;70.36
75513;BME280;64090;49.770;18.760;2023-01-31T09:21:19;97670.92;;;2.16;70.00
75513;BME280;64090;49.770;18.760;2023-01-31T09:24:23;97675.02;;;2.09;69.43
75513;BME280;64090;49.770;18.760;2023-01-31T09:27:28;97679.14;;;2.08;69.03
75513;BME280;64090;49.770;18.760;2023-01-31T09:30:31;97685.19;;;1.98;69.64
75513;BME280;64090;49.770;18.760;2023-01-31T09:33:35;97691.36;;;1.99;70.74
75513;BME280;64090;49.770;18.760;2023-01-31T09:36:38;97689.73;;;1.85;72.28
75513;BME280;64090;49.770;18.760;2023-01-31T09:39:41;97685.98;;;1.91;72.71
75513;BME280;64090;49.770;18.760;2023-01-31T09:42:44;97680.11;;;1.99;72.65
75513;BME280;64090;49.770;18.760;2023-01-31T09:45:51;97687.20;;;2.11;72.10
75513;BME280;64090;49.770;18.760;2023-01-31T09:48:58;97688.42;;;2.11;72.14
75513;BME280;64090;49.770;18.760;2023-01-31T09:52:03;97685.84;;;2.02;72.50
75513;BME280;64090;49.770;18.760;2023-01-31T09:55:14;97691.77;;;1.88;73.65
75513;BME280;64090;49.770;18.760;2023-01-31T10:05:10;97686.89;;;2.02;73.74
75513;BME280;64090;49.770;18.760;2023-01-31T10:11:42;97686.15;;;2.42;73.02
75513;BME280;64090;49.770;18.760;2023-01-31T10:15:05;97677.92;;;2.58;72.76
75513;BME280;64090;49.770;18.760;2023-01-31T10:18:25;97676.27;;;2.88;71.82
75513;BME280;64090;49.770;18.760;2023-01-31T10:21:43;97688.33;;;2.86;69.10
75513;BME280;64090;49.770;18.760;2023-01-31T10:24:52;97684.28;;;2.68;68.74
75513;BME280;64090;49.770;18.760;2023-01-31T10:28:56;97687.29;;;2.64;68.20
75513;BME280;64090;49.770;18.760;2023-01-31T10:31:40;97682.55;;;2.71;68.81
75513;BME280;64090;49.770;18.760;2023-01-31T10:35:39;97687.52;;;2.63;67.83
75513;BME280;64090;49.770;18.760;2023-01-31T10:45:31;97689.86;;;2.83;66.62
75513;BME280;64090;49.770;18.760;2023-01-31T10:48:35;97689.49;;;2.90;67.18
75513;BME280;64090;49.770;18.760;2023-01-31T10:58:03;97687.95;;;2.75;64.85
75513;BME280;64090;49.770;18.760;2023-01-31T11:01:08;97678.88;;;2.78;65.04
75513;BME280;64090;49.770;18.760;2023-01-31T11:04:27;97677.94;;;2.80;64.81
75513;BME280;64090;49.770;18.760;2023-01-31T11:07:33;97679.48;;;2.75;64.36
75513;BME280;64090;49.770;18.760;2023-01-31T11:10:50;97677.84;;;2.60;65.07
75513;BME280;64090;49.770;18.760;2023-01-31T11:14:05;97675.95;;;2.56;65.54
75513;BME280;64090;49.770;18.760;2023-01-31T11:17:16;97672.94;;;2.59;65.47
75513;BME280;64090;49.770;18.760;2023-01-31T11:20:23;97669.81;;;2.69;65.67
75513;BME280;64090;49.770;18.760;2023-01-31T11:23:29;97666.65;;;2.79;65.61
75513;BME280;64090;49.770;18.760;2023-01-31T11:26:34;97654.25;;;2.89;65.26
75513;BME280;64090;49.770;18.760;2023-01-31T11:29:49;97645.31;;;3.16;64.44
75513;BME280;64090;49.770;18.760;2023-01-31T11:32:53;97640.59;;;3.36;63.62
75513;BME280;64090;49.770;18.760;2023-01-31T11:35:56;97637.20;;;3.57;63.27
75513;BME280;64090;49.770;18.760;2023-01-31T11:39:20;97634.40;;;3.63;63.24
75513;BME280;64090;49.770;18.760;2023-01-31T11:42:26;97625.73;;;3.65;63.20
75513;BME280;64090;49.770;18.760;2023-01-31T11:45:31;97618.38;;;3.56;63.16
75513;BME280;64090;49.770;18.760;2023-01-31T11:48:41;97611.64;;;3.52;62.84
75513;BME280;64090;49.770;18.760;2023-01-31T11:51:45;97609.09;;;3.44;63.10
75513;BME280;64090;49.770;18.760;2023-01-31T11:54:53;97604.58;;;3.49;63.42
75513;BME280;64090;49.770;18.760;2023-01-31T11:57:58;97608.39;;;3.58;63.93
75513;BME280;64090;49.770;18.760;2023-01-31T12:01:11;97609.92;;;3.64;63.36
75513;BME280;64090;49.770;18.760;2023-01-31T12:04:31;97616.24;;;3.31;63.41
75513;BME280;64090;49.770;18.760;2023-01-31T12:07:50;97614.05;;;3.12;65.38
75513;BME280;64090;49.770;18.760;2023-01-31T12:10:56;97603.53;;;3.31;66.53
75513;BME280;64090;49.770;18.760;2023-01-31T12:14:05;97607.29;;;3.38;67.03
75513;BME280;64090;49.770;18.760;2023-01-31T12:17:15;97595.56;;;3.31;68.44
75513;BME280;64090;49.770;18.760;2023-01-31T12:20:36;97595.06;;;3.28;68.57
75513;BME280;64090;49.770;18.760;2023-01-31T12:24:04;97597.52;;;3.18;69.35
75513;BME280;64090;49.770;18.760;2023-01-31T12:27:24;97598.64;;;3.12;69.35
75513;BME280;64090;49.770;18.760;2023-01-31T12:34:01;97580.30;;;3.07;69.96
75513;BME280;64090;49.770;18.760;2023-01-31T12:47:57;97578.10;;;2.59;72.03
75513;BME280;64090;49.770;18.760;2023-01-31T12:51:21;97578.59;;;2.41;72.69
75513;BME280;64090;49.770;18.760;2023-01-31T13:01:30;97573.46;;;2.05;73.88
75513;BME280;64090;49.770;18.760;2023-01-31T13:14:05;97571.40;;;1.75;75.20
75513;BME280;64090;49.770;18.760;2023-01-31T13:17:17;97568.20;;;1.65;75.36
75513;BME280;64090;49.770;18.760;2023-01-31T13:20:29;97567.63;;;1.59;76.37
75513;BME280;64090;49.770;18.760;2023-01-31T13:23:45;97566.59;;;1.59;75.48
75513;BME280;64090;49.770;18.760;2023-01-31T13:27:03;97567.98;;;1.57;76.86
75513;BME280;64090;49.770;18.760;2023-01-31T13:33:46;97565.09;;;1.56;77.04
75513;BME280;64090;49.770;18.760;2023-01-31T13:37:08;97567.59;;;1.58;76.77
75513;BME280;64090;49.770;18.760;2023-01-31T13:40:19;97568.70;;;1.55;76.70
75513;BME280;64090;49.770;18.760;2023-01-31T13:43:23;97573.73;;;1.46;77.02
75513;BME280;64090;49.770;18.760;2023-01-31T13:49:38;97566.65;;;1.26;77.97
75513;BME280;64090;49.770;18.760;2023-01-31T13:52:52;97567.45;;;1.18;79.24
75513;BME280;64090;49.770;18.760;2023-01-31T13:55:59;97562.84;;;1.17;79.07
75513;BME280;64090;49.770;18.760;2023-01-31T13:59:08;97565.16;;;1.09;81.23
75513;BME280;64090;49.770;18.760;2023-01-31T14:02:17;97563.71;;;1.01;81.25
75513;BME280;64090;49.770;18.760;2023-01-31T14:15:47;97561.88;;;1.20;81.95
75513;BME280;64090;49.770;18.760;2023-01-31T14:18:50;97562.59;;;1.18;82.98
75513;BME280;64090;49.770;18.760;2023-01-31T14:28:11;97563.44;;;1.11;83.27
75513;BME280;64090;49.770;18.760;2023-01-31T14:31:18;97558.92;;;1.11;82.54
75513;BME280;64090;49.770;18.760;2023-01-31T14:34:27;97558.29;;;1.05;84.35
75513;BME280;64090;49.770;18.760;2023-01-31T14:38:21;97551.95;;;0.98;83.27
75513;BME280;64090;49.770;18.760;2023-01-31T14:54:02;97534.75;;;0.81;84.04
75513;BME280;64090;49.770;18.760;2023-01-31T14:57:22;97529.02;;;0.79;85.02
75513;BME280;64090;49.770;18.760;2023-01-31T15:00:30;97521.04;;;0.73;85.87
75513;BME280;64090;49.770;18.760;2023-01-31T15:03:37;97515.88;;;0.68;85.15
75513;BME280;64090;49.770;18.760;2023-01-31T15:06:42;97514.63;;;0.62;85.64
75513;BME280;64090;49.770;18.760;2023-01-31T15:09:46;97514.21;;;0.57;85.51
75513;BME280;64090;49.770;18.760;2023-01-31T15:12:56;97510.04;;;0.53;85.85
75513;BME280;64090;49.770;18.760;2023-01-31T15:16:06;97509.59;;;0.51;85.33
75513;BME280;64090;49.770;18.760;2023-01-31T15:19:13;97498.24;;;0.50;85.25
75513;BME280;64090;49.770;18.760;2023-01-31T15:22:21;97501.05;;;0.46;85.96
75513;BME280;64090;49.770;18.760;2023-01-31T15:25:35;97501.25;;;0.42;86.75
75513;BME280;64090;49.770;18.760;2023-01-31T15:28:43;97503.84;;;0.40;87.28
75513;BME280;64090;49.770;18.760;2023-01-31T15:31:49;97505.09;;;0.38;86.70
75513;BME280;64090;49.770;18.760;2023-01-31T15:35:05;97506.10;;;0.36;87.21
75513;BME280;64090;49.770;18.760;2023-01-31T15:38:19;97499.19;;;0.36;87.03
75513;BME280;64090;49.770;18.760;2023-01-31T15:41:41;97501.06;;;0.36;86.78
75513;BME280;64090;49.770;18.760;2023-01-31T15:44:44;97503.98;;;0.37;87.17
75513;BME280;64090;49.770;18.760;2023-01-31T15:48:05;97494.95;;;0.38;86.02
75513;BME280;64090;49.770;18.760;2023-01-31T15:51:10;97490.02;;;0.39;87.11
75513;BME280;64090;49.770;18.760;2023-01-31T15:54:15;97483.11;;;0.42;86.40
75513;BME280;64090;49.770;18.760;2023-01-31T15:57:19;97484.02;;;0.45;85.71
75513;BME280;64090;49.770;18.760;2023-01-31T16:03:29;97472.96;;;0.50;85.15
75513;BME280;64090;49.770;18.760;2023-01-31T16:06:37;97464.85;;;0.52;85.38
75513;BME280;64090;49.770;18.760;2023-01-31T16:09:41;97458.80;;;0.53;84.95
75513;BME280;64090;49.770;18.760;2023-01-31T16:12:47;97457.52;;;0.54;85.06
75513;BME280;64090;49.770;18.760;2023-01-31T16:15:51;97453.57;;;0.55;84.83
75513;BME280;64090;49.770;18.760;2023-01-31T16:18:57;97455.84;;;0.57;84.76
75513;BME280;64090;49.770;18.760;2023-01-31T16:22:00;97456.83;;;0.58;84.61
75513;BME280;64090;49.770;18.760;2023-01-31T16:25:04;97464.89;;;0.59;84.42
75513;BME280;64090;49.770;18.760;2023-01-31T16:28:10;97465.45;;;0.64;83.82
75513;BME280;64090;49.770;18.760;2023-01-31T16:31:15;97464.83;;;0.70;83.51
75513;BME280;64090;49.770;18.760;2023-01-31T16:34:23;97468.50;;;0.72;83.30
75513;BME280;64090;49.770;18.760;2023-01-31T16:37:42;97467.06;;;0.76;83.20
75513;BME280;64090;49.770;18.760;2023-01-31T16:40:50;97475.05;;;0.78;83.00
75513;BME280;64090;49.770;18.760;2023-01-31T16:43:54;97472.29;;;0.81;82.56
75513;BME280;64090;49.770;18.760;2023-01-31T16:46:58;97475.75;;;0.85;82.74
75513;BME280;64090;49.770;18.760;2023-01-31T16:50:28;97478.13;;;0.90;82.39
75513;BME280;64090;49.770;18.760;2023-01-31T16:53:44;97478.97;;;0.95;81.98
75513;BME280;64090;49.770;18.760;2023-01-31T17:00:05;97489.14;;;0.93;82.38
75513;BME280;64090;49.770;18.760;2023-01-31T17:03:17;97487.71;;;0.90;83.01
75513;BME280;64090;49.770;18.760;2023-01-31T17:06:21;97487.22;;;0.87;82.89
75513;BME280;64090;49.770;18.760;2023-01-31T17:09:24;97481.95;;;0.84;83.41
75513;BME280;64090;49.770;18.760;2023-01-31T17:12:29;97484.46;;;0.80;83.90
75513;BME280;64090;49.770;18.760;2023-01-31T17:15:32;97491.30;;;0.76;83.72
75513;BME280;64090;49.770;18.760;2023-01-31T17:18:35;97485.41;;;0.74;84.23
75513;BME280;64090;49.770;18.760;2023-01-31T17:21:40;97480.75;;;0.72;84.22
75513;BME280;64090;49.770;18.760;2023-01-31T17:24:43;97482.11;;;0.70;84.48
75513;BME280;64090;49.770;18.760;2023-01-31T17:27:48;97466.91;;;0.67;84.64
75513;BME280;64090;49.770;18.760;2023-01-31T17:30:51;97466.27;;;0.61;85.19
75513;BME280;64090;49.770;18.760;2023-01-31T17:33:54;97471.14;;;0.56;85.82
75513;BME280;64090;49.770;18.760;2023-01-31T17:36:57;97470.23;;;0.53;85.19
75513;BME280;64090;49.770;18.760;2023-01-31T17:40:00;97465.45;;;0.50;86.29
75513;BME280;64090;49.770;18.760;2023-01-31T17:43:03;97467.46;;;0.45;87.05
75513;BME280;64090;49.770;18.760;2023-01-31T17:46:08;97466.58;;;0.41;86.82
75513;BME280;64090;49.770;18.760;2023-01-31T17:49:13;97458.75;;;0.34;87.69
75513;BME280;64090;49.770;18.760;2023-01-31T17:52:16;97453.25;;;0.26;89.31
75513;BME280;64090;49.770;18.760;2023-01-31T17:55:19;97444.10;;;0.23;87.85
75513;BME280;64090;49.770;18.760;2023-01-31T17:58:25;97443.81;;;0.17;89.48
75513;BME280;64090;49.770;18.760;2023-01-31T18:01:30;97432.14;;;0.14;89.22
75513;BME280;64090;49.770;18.760;2023-01-31T18:04:33;97423.23;;;0.10;89.96
75513;BME280;64090;49.770;18.760;2023-01-31T18:07:36;97414.98;;;0.07;90.36
75513;BME280;64090;49.770;18.760;2023-01-31T18:10:40;97410.49;;;0.05;90.84
75513;BME280;64090;49.770;18.760;2023-01-31T18:13:43;97400.66;;;0.02;91.28
75513;BME280;64090;49.770;18.760;2023-01-31T18:16:48;97396.91;;;-0.01;91.44
75513;BME280;64090;49.770;18.760;2023-01-31T18:19:52;97393.70;;;-0.02;90.92
75513;BME280;64090;49.770;18.760;2023-01-31T18:22:55;97390.70;;;-0.01;91.12
75513;BME280;64090;49.770;18.760;2023-01-31T18:25:58;97391.64;;;-0.02;91.36
75513;BME280;64090;49.770;18.760;2023-01-31T18:29:01;97386.52;;;-0.01;91.83